sensor_id;sensor_type;location;lat;lon;timestamp;temperature;humidity
3492;DHT22;1760;52.480;13.422;2022-08-20T00:02:21;22.20;99.90
3492;DHT22;1760;52.480;13.422;2022-08-20T00:04:49;22.10;99.90
3492;DHT22;1760;52.480;13.422;2022-08-20T00:07:16;22.20;99.90
3492;DHT22;1760;52.480;13.422;2022-08-20T00:09:43;22.10;99.90
3492;DHT22;1760;52.480;13.422;2022-08-20T00:12:11;22.10;99.90
3492;DHT22;1760;52.480;13.422;2022-08-20T00:14:40;22.10;99.90
3492;DHT22;1760;52.480;13.422;2022-08-20T00:17:06;22.10;99.90
3492;DHT22;1760;52.480;13.422;2022-08-20T00:19:33;22.10;99.90
3492;DHT22;1760;52.480;13.422;2022-08-20T00:22:00;22.10;99.90
3492;DHT22;1760;52.480;13.422;2022-08-20T00:24:27;22.00;99.90
3492;DHT22;1760;52.480;13.422;2022-08-20T00:26:54;22.00;99.90
3492;DHT22;1760;52.480;13.422;2022-08-20T00:29:21;22.00;99.90
3492;DHT22;1760;52.480;13.422;2022-08-20T00:31:49;21.90;99.90
3492;DHT22;1760;52.480;13.422;2022-08-20T00:34:16;21.90;99.90
3492;DHT22;1760;52.480;13.422;2022-08-20T00:36:43;21.90;99.90
3492;DHT22;1760;52.480;13.422;2022-08-20T00:39:11;21.90;99.90
3492;DHT22;1760;52.480;13.422;2022-08-20T00:41:38;21.90;99.90
3492;DHT22;1760;52.480;13.422;2022-08-20T00:44:09;21.90;99.90
3492;DHT22;1760;52.480;13.422;2022-08-20T00:46:39;21.90;99.90
3492;DHT22;1760;52.480;13.422;2022-08-20T00:49:08;21.80;99.90
3492;DHT22;1760;52.480;13.422;2022-08-20T00:51:40;21.80;99.90
3492;DHT22;1760;52.480;13.422;2022-08-20T00:54:12;21.80;99.90
3492;DHT22;1760;52.480;13.422;2022-08-20T00:56:39;21.80;99.90
3492;DHT22;1760;52.480;13.422;2022-08-20T00:59:09;21.80;99.90
3492;DHT22;1760;52.480;13.422;2022-08-20T01:01:39;21.80;99.90
3492;DHT22;1760;52.480;13.422;2022-08-20T01:04:08;21.80;99.90
3492;DHT22;1760;52.480;13.422;2022-08-20T01:06:35;21.70;99.90
3492;DHT22;1760;52.480;13.422;2022-08-20T01:09:02;21.70;99.90
3492;DHT22;1760;52.480;13.422;2022-08-20T01:11:30;21.60;99.90
3492;DHT22;1760;52.480;13.422;2022-08-20T01:13:58;21.60;99.90
3492;DHT22;1760;52.480;13.422;2022-08-20T01:16:29;21.60;99.90
3492;DHT22;1760;52.480;13.422;2022-08-20T01:18:57;21.50;99.90
3492;DHT22;1760;52.480;13.422;2022-08-20T01:21:27;21.50;99.90
3492;DHT22;1760;52.480;13.422;2022-08-20T01:24:17;21.50;99.90
3492;DHT22;1760;52.480;13.422;2022-08-20T01:26:47;21.50;99.90
3492;DHT22;1760;52.480;13.422;2022-08-20T01:29:18;21.50;99.90
3492;DHT22;1760;52.480;13.422;2022-08-20T01:31:46;21.50;99.90
3492;DHT22;1760;52.480;13.422;2022-08-20T01:34:18;21.50;99.90
3492;DHT22;1760;52.480;13.422;2022-08-20T01:36:46;21.50;99.90
3492;DHT22;1760;52.480;13.422;2022-08-20T01:39:19;21.50;99.90
3492;DHT22;1760;52.480;13.422;2022-08-20T01:42:03;21.40;99.90
3492;DHT22;1760;52.480;13.422;2022-08-20T01:44:35;21.40;99.90
3492;DHT22;1760;52.480;13.422;2022-08-20T01:47:14;21.40;99.90
3492;DHT22;1760;52.480;13.422;2022-08-20T01:49:45;21.50;99.90
3492;DHT22;1760;52.480;13.422;2022-08-20T01:52:19;21.50;99.90
3492;DHT22;1760;52.480;13.422;2022-08-20T01:54:48;21.50;99.90
3492;DHT22;1760;52.480;13.422;2022-08-20T01:57:18;21.50;99.90
3492;DHT22;1760;52.480;13.422;2022-08-20T01:59:47;21.50;99.90
3492;DHT22;1760;52.480;13.422;2022-08-20T02:02:15;21.50;99.90
3492;DHT22;1760;52.480;13.422;2022-08-20T02:04:42;21.40;99.90
3492;DHT22;1760;52.480;13.422;2022-08-20T02:07:14;21.40;99.90
3492;DHT22;1760;52.480;13.422;2022-08-20T02:09:41;21.40;99.90
3492;DHT22;1760;52.480;13.422;2022-08-20T02:12:10;21.40;99.90
3492;DHT22;1760;52.480;13.422;2022-08-20T02:14:41;21.40;99.90
3492;DHT22;1760;52.480;13.422;2022-08-20T02:17:09;21.40;99.90
3492;DHT22;1760;52.480;13.422;2022-08-20T02:19:39;21.30;99.90
3492;DHT22;1760;52.480;13.422;2022-08-20T02:22:13;21.20;99.90
3492;DHT22;1760;52.480;13.422;2022-08-20T02:24:41;21.20;99.90
3492;DHT22;1760;52.480;13.422;2022-08-20T02:27:08;21.20;99.90
3492;DHT22;1760;52.480;13.422;2022-08-20T02:29:35;21.20;99.90
3492;DHT22;1760;52.480;13.422;2022-08-20T02:32:04;21.10;99.90
3492;DHT22;1760;52.480;13.422;2022-08-20T02:34:32;21.10;99.90
3492;DHT22;1760;52.480;13.422;2022-08-20T02:37:00;21.20;99.90
3492;DHT22;1760;52.480;13.422;2022-08-20T02:39:27;21.10;99.90
3492;DHT22;1760;52.480;13.422;2022-08-20T02:41:54;21.20;99.90
3492;DHT22;1760;52.480;13.422;2022-08-20T02:44:21;21.20;99.90
3492;DHT22;1760;52.480;13.422;2022-08-20T02:46:48;21.20;99.90
3492;DHT22;1760;52.480;13.422;2022-08-20T02:49:17;21.20;99.90
3492;DHT22;1760;52.480;13.422;2022-08-20T02:51:45;21.10;99.90
3492;DHT22;1760;52.480;13.422;2022-08-20T02:54:12;21.10;99.90
3492;DHT22;1760;52.480;13.422;2022-08-20T02:56:40;21.10;99.90
3492;DHT22;1760;52.480;13.422;2022-08-20T02:59:06;21.10;99.90
3492;DHT22;1760;52.480;13.422;2022-08-20T03:01:37;21.10;99.90
3492;DHT22;1760;52.480;13.422;2022-08-20T03:04:04;21.10;99.90
3492;DHT22;1760;52.480;13.422;2022-08-20T03:06:32;21.10;99.90
3492;DHT22;1760;52.480;13.422;2022-08-20T03:08:59;21.10;99.90
3492;DHT22;1760;52.480;13.422;2022-08-20T03:11:27;21.10;99.90
3492;DHT22;1760;52.480;13.422;2022-08-20T03:13:54;21.10;99.90
3492;DHT22;1760;52.480;13.422;2022-08-20T03:16:21;21.10;99.90
3492;DHT22;1760;52.480;13.422;2022-08-20T03:18:50;21.10;99.90
3492;DHT22;1760;52.480;13.422;2022-08-20T03:21:17;21.10;99.90
3492;DHT22;1760;52.480;13.422;2022-08-20T03:23:45;21.10;99.90
3492;DHT22;1760;52.480;13.422;2022-08-20T03:26:12;21.10;99.90
3492;DHT22;1760;52.480;13.422;2022-08-20T03:28:41;21.10;99.90
3492;DHT22;1760;52.480;13.422;2022-08-20T03:31:09;21.10;99.90
3492;DHT22;1760;52.480;13.422;2022-08-20T03:33:36;21.10;99.90
3492;DHT22;1760;52.480;13.422;2022-08-20T03:36:04;21.10;99.90
3492;DHT22;1760;52.480;13.422;2022-08-20T03:38:31;21.10;99.90
3492;DHT22;1760;52.480;13.422;2022-08-20T03:41:00;21.20;99.90
3492;DHT22;1760;52.480;13.422;2022-08-20T03:43:28;21.20;99.90
3492;DHT22;1760;52.480;13.422;2022-08-20T03:45:55;21.20;99.90
3492;DHT22;1760;52.480;13.422;2022-08-20T03:48:22;21.20;99.90
3492;DHT22;1760;52.480;13.422;2022-08-20T03:50:49;21.20;99.90
3492;DHT22;1760;52.480;13.422;2022-08-20T03:53:17;21.20;99.90
3492;DHT22;1760;52.480;13.422;2022-08-20T03:55:48;21.30;99.90
3492;DHT22;1760;52.480;13.422;2022-08-20T03:58:21;21.30;99.90
3492;DHT22;1760;52.480;13.422;2022-08-20T04:00:50;21.30;99.90
3492;DHT22;1760;52.480;13.422;2022-08-20T04:03:17;21.30;99.90
3492;DHT22;1760;52.480;13.422;2022-08-20T04:05:45;21.30;99.90
3492;DHT22;1760;52.480;13.422;2022-08-20T04:08:14;21.20;99.90
3492;DHT22;1760;52.480;13.422;2022-08-20T04:10:41;21.30;99.90
3492;DHT22;1760;52.480;13.422;2022-08-20T04:13:08;21.30;99.90
3492;DHT22;1760;52.480;13.422;2022-08-20T04:15:37;21.30;99.90
3492;DHT22;1760;52.480;13.422;2022-08-20T04:18:06;21.30;99.90
3492;DHT22;1760;52.480;13.422;2022-08-20T04:20:34;21.30;99.90
3492;DHT22;1760;52.480;13.422;2022-08-20T04:23:02;21.30;99.90
3492;DHT22;1760;52.480;13.422;2022-08-20T04:25:30;21.30;99.90
3492;DHT22;1760;52.480;13.422;2022-08-20T04:28:00;21.30;99.90
3492;DHT22;1760;52.480;13.422;2022-08-20T04:30:28;21.30;99.90
3492;DHT22;1760;52.480;13.422;2022-08-20T04:33:02;21.30;99.90
3492;DHT22;1760;52.480;13.422;2022-08-20T04:35:31;21.30;99.90
3492;DHT22;1760;52.480;13.422;2022-08-20T04:37:59;21.30;99.90
3492;DHT22;1760;52.480;13.422;2022-08-20T04:40:27;21.30;99.90
3492;DHT22;1760;52.480;13.422;2022-08-20T04:43:12;21.30;99.90
3492;DHT22;1760;52.480;13.422;2022-08-20T04:45:39;21.30;99.90
3492;DHT22;1760;52.480;13.422;2022-08-20T04:48:07;21.30;99.90
3492;DHT22;1760;52.480;13.422;2022-08-20T04:50:35;21.30;99.90
3492;DHT22;1760;52.480;13.422;2022-08-20T04:53:03;21.30;99.90
3492;DHT22;1760;52.480;13.422;2022-08-20T04:55:32;21.30;99.90
3492;DHT22;1760;52.480;13.422;2022-08-20T04:58:02;21.30;99.90
3492;DHT22;1760;52.480;13.422;2022-08-20T05:00:30;21.30;99.90
3492;DHT22;1760;52.480;13.422;2022-08-20T05:02:57;21.30;99.90
3492;DHT22;1760;52.480;13.422;2022-08-20T05:05:25;21.40;99.90
3492;DHT22;1760;52.480;13.422;2022-08-20T05:07:52;21.30;99.90
3492;DHT22;1760;52.480;13.422;2022-08-20T05:10:20;21.30;99.90
3492;DHT22;1760;52.480;13.422;2022-08-20T05:12:48;21.30;99.90
3492;DHT22;1760;52.480;13.422;2022-08-20T05:15:15;21.30;99.90
3492;DHT22;1760;52.480;13.422;2022-08-20T05:17:42;21.30;99.90
3492;DHT22;1760;52.480;13.422;2022-08-20T05:20:14;21.30;99.90
3492;DHT22;1760;52.480;13.422;2022-08-20T05:22:43;21.30;99.90
3492;DHT22;1760;52.480;13.422;2022-08-20T05:25:10;21.30;99.90
3492;DHT22;1760;52.480;13.422;2022-08-20T05:27:37;21.30;99.90
3492;DHT22;1760;52.480;13.422;2022-08-20T05:30:09;21.30;99.90
3492;DHT22;1760;52.480;13.422;2022-08-20T05:32:36;21.30;99.90
3492;DHT22;1760;52.480;13.422;2022-08-20T05:35:04;21.30;99.90
3492;DHT22;1760;52.480;13.422;2022-08-20T05:37:33;21.40;99.90
3492;DHT22;1760;52.480;13.422;2022-08-20T05:40:07;21.40;99.90
3492;DHT22;1760;52.480;13.422;2022-08-20T05:42:34;21.50;99.90
3492;DHT22;1760;52.480;13.422;2022-08-20T05:45:02;21.50;99.90
3492;DHT22;1760;52.480;13.422;2022-08-20T05:47:29;21.60;99.90
3492;DHT22;1760;52.480;13.422;2022-08-20T05:49:56;21.60;99.90
3492;DHT22;1760;52.480;13.422;2022-08-20T05:52:23;21.70;99.90
3492;DHT22;1760;52.480;13.422;2022-08-20T05:54:50;21.70;99.90
3492;DHT22;1760;52.480;13.422;2022-08-20T05:57:19;21.70;99.90
3492;DHT22;1760;52.480;13.422;2022-08-20T05:59:45;21.70;99.90
3492;DHT22;1760;52.480;13.422;2022-08-20T06:02:13;21.70;99.90
3492;DHT22;1760;52.480;13.422;2022-08-20T06:04:53;21.80;99.90
3492;DHT22;1760;52.480;13.422;2022-08-20T06:07:21;21.80;99.90
3492;DHT22;1760;52.480;13.422;2022-08-20T06:09:48;21.80;99.90
3492;DHT22;1760;52.480;13.422;2022-08-20T06:12:15;21.70;99.90
3492;DHT22;1760;52.480;13.422;2022-08-20T06:14:44;21.70;99.90
3492;DHT22;1760;52.480;13.422;2022-08-20T06:17:14;21.70;99.90
3492;DHT22;1760;52.480;13.422;2022-08-20T06:19:42;21.70;99.90
3492;DHT22;1760;52.480;13.422;2022-08-20T06:22:11;21.60;99.90
3492;DHT22;1760;52.480;13.422;2022-08-20T06:24:38;21.60;99.90
3492;DHT22;1760;52.480;13.422;2022-08-20T06:27:05;21.60;99.90
3492;DHT22;1760;52.480;13.422;2022-08-20T06:29:34;21.60;99.90
3492;DHT22;1760;52.480;13.422;2022-08-20T06:32:03;21.60;99.90
3492;DHT22;1760;52.480;13.422;2022-08-20T06:34:30;21.60;99.90
3492;DHT22;1760;52.480;13.422;2022-08-20T06:36:57;21.60;99.90
3492;DHT22;1760;52.480;13.422;2022-08-20T06:39:26;21.60;99.90
3492;DHT22;1760;52.480;13.422;2022-08-20T06:41:53;21.60;99.90
3492;DHT22;1760;52.480;13.422;2022-08-20T06:44:20;21.60;99.90
3492;DHT22;1760;52.480;13.422;2022-08-20T06:46:47;21.60;99.90
3492;DHT22;1760;52.480;13.422;2022-08-20T06:49:15;21.60;99.90
3492;DHT22;1760;52.480;13.422;2022-08-20T06:51:43;21.70;99.90
3492;DHT22;1760;52.480;13.422;2022-08-20T06:54:10;21.70;99.90
3492;DHT22;1760;52.480;13.422;2022-08-20T06:56:36;21.70;99.90
3492;DHT22;1760;52.480;13.422;2022-08-20T06:59:03;21.70;99.90
3492;DHT22;1760;52.480;13.422;2022-08-20T07:01:30;21.70;99.90
3492;DHT22;1760;52.480;13.422;2022-08-20T07:03:57;21.70;99.90
3492;DHT22;1760;52.480;13.422;2022-08-20T07:06:26;21.70;99.90
3492;DHT22;1760;52.480;13.422;2022-08-20T07:08:53;21.80;99.90
3492;DHT22;1760;52.480;13.422;2022-08-20T07:11:21;21.80;99.90
3492;DHT22;1760;52.480;13.422;2022-08-20T07:13:48;21.80;99.90
3492;DHT22;1760;52.480;13.422;2022-08-20T07:16:14;21.90;99.90
3492;DHT22;1760;52.480;13.422;2022-08-20T07:18:43;21.90;99.90
3492;DHT22;1760;52.480;13.422;2022-08-20T07:21:10;21.90;99.90
3492;DHT22;1760;52.480;13.422;2022-08-20T07:23:38;21.90;99.90
3492;DHT22;1760;52.480;13.422;2022-08-20T07:26:06;21.90;99.90
3492;DHT22;1760;52.480;13.422;2022-08-20T07:28:33;22.00;99.90
3492;DHT22;1760;52.480;13.422;2022-08-20T07:31:00;22.00;99.90
3492;DHT22;1760;52.480;13.422;2022-08-20T07:33:44;21.90;99.90
3492;DHT22;1760;52.480;13.422;2022-08-20T07:36:11;21.80;99.90
3492;DHT22;1760;52.480;13.422;2022-08-20T07:38:40;21.80;99.90
3492;DHT22;1760;52.480;13.422;2022-08-20T07:41:11;21.80;99.90
3492;DHT22;1760;52.480;13.422;2022-08-20T07:43:40;21.80;99.90
3492;DHT22;1760;52.480;13.422;2022-08-20T07:46:08;21.80;99.90
3492;DHT22;1760;52.480;13.422;2022-08-20T07:48:36;21.90;99.90
3492;DHT22;1760;52.480;13.422;2022-08-20T07:51:05;21.90;99.90
3492;DHT22;1760;52.480;13.422;2022-08-20T07:53:34;21.90;99.90
3492;DHT22;1760;52.480;13.422;2022-08-20T07:56:04;21.90;99.90
3492;DHT22;1760;52.480;13.422;2022-08-20T07:58:35;21.80;99.90
3492;DHT22;1760;52.480;13.422;2022-08-20T08:01:04;21.90;99.90
3492;DHT22;1760;52.480;13.422;2022-08-20T08:03:31;21.80;99.90
3492;DHT22;1760;52.480;13.422;2022-08-20T08:05:58;21.90;99.90
3492;DHT22;1760;52.480;13.422;2022-08-20T08:08:27;21.90;99.90
3492;DHT22;1760;52.480;13.422;2022-08-20T08:10:57;22.00;99.90
3492;DHT22;1760;52.480;13.422;2022-08-20T08:13:27;22.00;99.90
3492;DHT22;1760;52.480;13.422;2022-08-20T08:15:57;22.00;99.90
3492;DHT22;1760;52.480;13.422;2022-08-20T08:18:28;22.10;99.90
3492;DHT22;1760;52.480;13.422;2022-08-20T08:20:56;22.10;99.90
3492;DHT22;1760;52.480;13.422;2022-08-20T08:23:23;22.10;99.90
3492;DHT22;1760;52.480;13.422;2022-08-20T08:25:51;22.10;99.90
3492;DHT22;1760;52.480;13.422;2022-08-20T08:28:18;22.20;99.90
3492;DHT22;1760;52.480;13.422;2022-08-20T08:30:48;22.20;99.90
3492;DHT22;1760;52.480;13.422;2022-08-20T08:33:19;22.20;99.90
3492;DHT22;1760;52.480;13.422;2022-08-20T08:35:56;22.10;99.90
3492;DHT22;1760;52.480;13.422;2022-08-20T08:38:24;22.10;99.90
3492;DHT22;1760;52.480;13.422;2022-08-20T08:40:53;22.10;99.90
3492;DHT22;1760;52.480;13.422;2022-08-20T08:43:23;22.10;99.90
3492;DHT22;1760;52.480;13.422;2022-08-20T08:45:56;22.10;99.90
3492;DHT22;1760;52.480;13.422;2022-08-20T08:48:31;22.10;99.90
3492;DHT22;1760;52.480;13.422;2022-08-20T08:51:01;22.10;99.90
3492;DHT22;1760;52.480;13.422;2022-08-20T08:53:36;22.20;99.90
3492;DHT22;1760;52.480;13.422;2022-08-20T08:56:05;22.30;99.90
3492;DHT22;1760;52.480;13.422;2022-08-20T08:58:32;22.30;99.90
3492;DHT22;1760;52.480;13.422;2022-08-20T09:01:03;22.30;99.90
3492;DHT22;1760;52.480;13.422;2022-08-20T09:03:32;22.20;99.90
3492;DHT22;1760;52.480;13.422;2022-08-20T09:06:02;22.20;99.90
3492;DHT22;1760;52.480;13.422;2022-08-20T09:08:32;22.30;99.90
3492;DHT22;1760;52.480;13.422;2022-08-20T09:11:01;22.20;99.90
3492;DHT22;1760;52.480;13.422;2022-08-20T09:13:30;22.20;99.90
3492;DHT22;1760;52.480;13.422;2022-08-20T09:15:57;22.30;99.90
3492;DHT22;1760;52.480;13.422;2022-08-20T09:18:26;22.30;99.90
3492;DHT22;1760;52.480;13.422;2022-08-20T09:20:53;22.40;99.90
3492;DHT22;1760;52.480;13.422;2022-08-20T09:23:21;22.40;99.90
3492;DHT22;1760;52.480;13.422;2022-08-20T09:25:48;22.40;99.90
3492;DHT22;1760;52.480;13.422;2022-08-20T09:28:18;22.30;99.90
3492;DHT22;1760;52.480;13.422;2022-08-20T09:30:45;22.30;99.90
3492;DHT22;1760;52.480;13.422;2022-08-20T09:33:11;22.30;99.90
3492;DHT22;1760;52.480;13.422;2022-08-20T09:35:40;22.40;99.90
3492;DHT22;1760;52.480;13.422;2022-08-20T09:38:09;22.30;99.90
3492;DHT22;1760;52.480;13.422;2022-08-20T09:40:36;22.40;99.90
3492;DHT22;1760;52.480;13.422;2022-08-20T09:43:04;22.40;99.90
3492;DHT22;1760;52.480;13.422;2022-08-20T09:45:31;22.40;99.90
3492;DHT22;1760;52.480;13.422;2022-08-20T09:47:58;22.40;99.90
3492;DHT22;1760;52.480;13.422;2022-08-20T09:50:26;22.50;99.90
3492;DHT22;1760;52.480;13.422;2022-08-20T09:52:55;22.50;99.90
3492;DHT22;1760;52.480;13.422;2022-08-20T09:55:27;22.50;99.90
3492;DHT22;1760;52.480;13.422;2022-08-20T09:57:57;22.50;99.90
3492;DHT22;1760;52.480;13.422;2022-08-20T10:00:24;22.40;99.90
3492;DHT22;1760;52.480;13.422;2022-08-20T10:02:53;22.50;99.90
3492;DHT22;1760;52.480;13.422;2022-08-20T10:05:20;22.50;99.90
3492;DHT22;1760;52.480;13.422;2022-08-20T10:07:47;22.60;99.90
3492;DHT22;1760;52.480;13.422;2022-08-20T10:10:15;22.70;99.90
3492;DHT22;1760;52.480;13.422;2022-08-20T10:12:42;22.70;99.90
3492;DHT22;1760;52.480;13.422;2022-08-20T10:15:11;22.80;99.90
3492;DHT22;1760;52.480;13.422;2022-08-20T10:17:39;22.70;99.90
3492;DHT22;1760;52.480;13.422;2022-08-20T10:20:08;22.80;99.90
3492;DHT22;1760;52.480;13.422;2022-08-20T10:22:36;22.90;99.90
3492;DHT22;1760;52.480;13.422;2022-08-20T10:25:04;22.90;99.90
3492;DHT22;1760;52.480;13.422;2022-08-20T10:27:32;22.90;99.90
3492;DHT22;1760;52.480;13.422;2022-08-20T10:29:59;23.00;99.90
3492;DHT22;1760;52.480;13.422;2022-08-20T10:32:25;23.00;99.90
3492;DHT22;1760;52.480;13.422;2022-08-20T10:34:52;23.10;99.90
3492;DHT22;1760;52.480;13.422;2022-08-20T10:37:21;23.10;99.90
3492;DHT22;1760;52.480;13.422;2022-08-20T10:39:49;23.20;99.90
3492;DHT22;1760;52.480;13.422;2022-08-20T10:42:16;23.30;99.90
3492;DHT22;1760;52.480;13.422;2022-08-20T10:44:45;23.40;99.90
3492;DHT22;1760;52.480;13.422;2022-08-20T10:47:19;23.40;99.90
3492;DHT22;1760;52.480;13.422;2022-08-20T10:49:48;23.40;99.90
3492;DHT22;1760;52.480;13.422;2022-08-20T10:52:15;23.50;99.90
3492;DHT22;1760;52.480;13.422;2022-08-20T10:54:42;23.60;99.90
3492;DHT22;1760;52.480;13.422;2022-08-20T10:57:12;23.70;99.90
3492;DHT22;1760;52.480;13.422;2022-08-20T10:59:40;23.70;99.90
3492;DHT22;1760;52.480;13.422;2022-08-20T11:02:09;23.70;99.90
3492;DHT22;1760;52.480;13.422;2022-08-20T11:04:36;23.80;99.90
3492;DHT22;1760;52.480;13.422;2022-08-20T11:07:14;23.80;99.90
3492;DHT22;1760;52.480;13.422;2022-08-20T11:09:42;23.90;99.90
3492;DHT22;1760;52.480;13.422;2022-08-20T11:12:10;23.90;99.90
3492;DHT22;1760;52.480;13.422;2022-08-20T11:14:37;23.80;99.90
3492;DHT22;1760;52.480;13.422;2022-08-20T11:17:04;23.80;99.90
3492;DHT22;1760;52.480;13.422;2022-08-20T11:19:37;23.80;99.90
3492;DHT22;1760;52.480;13.422;2022-08-20T11:22:04;23.80;99.90
3492;DHT22;1760;52.480;13.422;2022-08-20T11:24:30;23.80;99.90
3492;DHT22;1760;52.480;13.422;2022-08-20T11:26:57;23.80;99.90
3492;DHT22;1760;52.480;13.422;2022-08-20T11:29:24;23.80;99.90
3492;DHT22;1760;52.480;13.422;2022-08-20T11:31:51;23.80;99.90
3492;DHT22;1760;52.480;13.422;2022-08-20T11:34:18;23.70;99.90
3492;DHT22;1760;52.480;13.422;2022-08-20T11:36:47;23.80;99.90
3492;DHT22;1760;52.480;13.422;2022-08-20T11:39:14;23.80;99.90
3492;DHT22;1760;52.480;13.422;2022-08-20T11:41:41;23.70;99.90
3492;DHT22;1760;52.480;13.422;2022-08-20T11:44:07;23.70;99.90
3492;DHT22;1760;52.480;13.422;2022-08-20T11:46:34;23.70;99.90
3492;DHT22;1760;52.480;13.422;2022-08-20T11:49:01;23.70;99.90
3492;DHT22;1760;52.480;13.422;2022-08-20T11:51:28;23.70;99.90
3492;DHT22;1760;52.480;13.422;2022-08-20T11:53:56;23.80;99.90
3492;DHT22;1760;52.480;13.422;2022-08-20T11:56:23;23.80;99.90
3492;DHT22;1760;52.480;13.422;2022-08-20T11:58:49;23.70;99.90
3492;DHT22;1760;52.480;13.422;2022-08-20T12:01:16;23.70;99.90
3492;DHT22;1760;52.480;13.422;2022-08-20T12:03:43;23.70;99.90
3492;DHT22;1760;52.480;13.422;2022-08-20T12:06:10;23.70;99.90
3492;DHT22;1760;52.480;13.422;2022-08-20T12:08:37;23.50;99.90
3492;DHT22;1760;52.480;13.422;2022-08-20T12:11:05;23.50;99.90
3492;DHT22;1760;52.480;13.422;2022-08-20T12:13:34;23.50;99.90
3492;DHT22;1760;52.480;13.422;2022-08-20T12:16:01;23.50;99.90
3492;DHT22;1760;52.480;13.422;2022-08-20T12:18:28;23.40;99.90
3492;DHT22;1760;52.480;13.422;2022-08-20T12:20:56;23.40;99.90
3492;DHT22;1760;52.480;13.422;2022-08-20T12:23:23;23.40;99.90
3492;DHT22;1760;52.480;13.422;2022-08-20T12:25:50;23.40;99.90
3492;DHT22;1760;52.480;13.422;2022-08-20T12:28:18;23.40;99.90
3492;DHT22;1760;52.480;13.422;2022-08-20T12:30:45;23.40;99.90
3492;DHT22;1760;52.480;13.422;2022-08-20T12:33:12;23.50;99.90
3492;DHT22;1760;52.480;13.422;2022-08-20T12:35:39;23.40;99.90
3492;DHT22;1760;52.480;13.422;2022-08-20T12:38:06;23.40;99.90
3492;DHT22;1760;52.480;13.422;2022-08-20T12:40:33;23.50;99.90
3492;DHT22;1760;52.480;13.422;2022-08-20T12:43:02;23.40;99.90
3492;DHT22;1760;52.480;13.422;2022-08-20T12:45:32;23.40;99.90
3492;DHT22;1760;52.480;13.422;2022-08-20T12:48:00;23.50;99.90
3492;DHT22;1760;52.480;13.422;2022-08-20T12:50:28;23.50;99.90
3492;DHT22;1760;52.480;13.422;2022-08-20T12:52:58;23.40;99.90
3492;DHT22;1760;52.480;13.422;2022-08-20T12:55:25;23.40;99.90
3492;DHT22;1760;52.480;13.422;2022-08-20T12:57:54;23.30;99.90
3492;DHT22;1760;52.480;13.422;2022-08-20T13:00:24;23.30;99.90
3492;DHT22;1760;52.480;13.422;2022-08-20T13:02:54;23.40;99.90
3492;DHT22;1760;52.480;13.422;2022-08-20T13:05:22;23.40;99.90
3492;DHT22;1760;52.480;13.422;2022-08-20T13:07:49;23.30;99.90
3492;DHT22;1760;52.480;13.422;2022-08-20T13:10:20;23.30;99.90
3492;DHT22;1760;52.480;13.422;2022-08-20T13:12:50;23.30;99.90
3492;DHT22;1760;52.480;13.422;2022-08-20T13:15:17;23.30;99.90
3492;DHT22;1760;52.480;13.422;2022-08-20T13:17:48;23.30;99.90
3492;DHT22;1760;52.480;13.422;2022-08-20T13:20:17;23.30;99.90
3492;DHT22;1760;52.480;13.422;2022-08-20T13:22:44;23.30;99.90
3492;DHT22;1760;52.480;13.422;2022-08-20T13:25:14;23.30;99.90
3492;DHT22;1760;52.480;13.422;2022-08-20T13:27:41;23.30;99.90
3492;DHT22;1760;52.480;13.422;2022-08-20T13:30:11;23.30;99.90
3492;DHT22;1760;52.480;13.422;2022-08-20T13:32:39;23.20;99.90
3492;DHT22;1760;52.480;13.422;2022-08-20T13:35:07;23.20;99.90
3492;DHT22;1760;52.480;13.422;2022-08-20T13:37:38;23.20;99.90
3492;DHT22;1760;52.480;13.422;2022-08-20T13:40:07;23.10;99.90
3492;DHT22;1760;52.480;13.422;2022-08-20T13:42:48;23.00;99.90
3492;DHT22;1760;52.480;13.422;2022-08-20T13:45:15;22.90;99.90
3492;DHT22;1760;52.480;13.422;2022-08-20T13:47:42;22.90;99.90
3492;DHT22;1760;52.480;13.422;2022-08-20T13:50:12;22.90;99.90
3492;DHT22;1760;52.480;13.422;2022-08-20T13:52:41;22.80;99.90
3492;DHT22;1760;52.480;13.422;2022-08-20T13:55:11;22.70;99.90
3492;DHT22;1760;52.480;13.422;2022-08-20T13:57:39;22.70;99.90
3492;DHT22;1760;52.480;13.422;2022-08-20T14:00:07;22.60;99.90
3492;DHT22;1760;52.480;13.422;2022-08-20T14:02:36;22.50;99.90
3492;DHT22;1760;52.480;13.422;2022-08-20T14:05:03;22.50;99.90
3492;DHT22;1760;52.480;13.422;2022-08-20T14:07:30;22.50;99.90
3492;DHT22;1760;52.480;13.422;2022-08-20T14:10:01;22.50;99.90
3492;DHT22;1760;52.480;13.422;2022-08-20T14:12:28;22.40;99.90
3492;DHT22;1760;52.480;13.422;2022-08-20T14:14:55;22.40;99.90
3492;DHT22;1760;52.480;13.422;2022-08-20T14:17:24;22.40;99.90
3492;DHT22;1760;52.480;13.422;2022-08-20T14:19:53;22.40;99.90
3492;DHT22;1760;52.480;13.422;2022-08-20T14:22:23;22.40;99.90
3492;DHT22;1760;52.480;13.422;2022-08-20T14:24:50;22.40;99.90
3492;DHT22;1760;52.480;13.422;2022-08-20T14:27:20;22.40;99.90
3492;DHT22;1760;52.480;13.422;2022-08-20T14:29:49;22.40;99.90
3492;DHT22;1760;52.480;13.422;2022-08-20T14:32:17;22.40;99.90
3492;DHT22;1760;52.480;13.422;2022-08-20T14:34:44;22.30;99.90
3492;DHT22;1760;52.480;13.422;2022-08-20T14:37:14;22.30;99.90
3492;DHT22;1760;52.480;13.422;2022-08-20T14:39:42;22.40;99.90
3492;DHT22;1760;52.480;13.422;2022-08-20T14:42:09;22.40;99.90
3492;DHT22;1760;52.480;13.422;2022-08-20T14:44:37;22.40;99.90
3492;DHT22;1760;52.480;13.422;2022-08-20T14:47:12;22.40;99.90
3492;DHT22;1760;52.480;13.422;2022-08-20T14:49:39;22.40;99.90
3492;DHT22;1760;52.480;13.422;2022-08-20T14:52:06;22.30;99.90
3492;DHT22;1760;52.480;13.422;2022-08-20T14:54:33;22.40;99.90
3492;DHT22;1760;52.480;13.422;2022-08-20T14:57:00;22.40;99.90
3492;DHT22;1760;52.480;13.422;2022-08-20T14:59:27;22.30;99.90
3492;DHT22;1760;52.480;13.422;2022-08-20T15:01:55;22.30;99.90
3492;DHT22;1760;52.480;13.422;2022-08-20T15:04:22;22.30;99.90
3492;DHT22;1760;52.480;13.422;2022-08-20T15:06:49;22.20;99.90
3492;DHT22;1760;52.480;13.422;2022-08-20T15:09:16;22.20;99.90
3492;DHT22;1760;52.480;13.422;2022-08-20T15:11:43;22.20;99.90
3492;DHT22;1760;52.480;13.422;2022-08-20T15:14:10;22.20;99.90
3492;DHT22;1760;52.480;13.422;2022-08-20T15:16:37;22.10;99.90
3492;DHT22;1760;52.480;13.422;2022-08-20T15:19:06;22.10;99.90
3492;DHT22;1760;52.480;13.422;2022-08-20T15:21:33;22.10;99.90
3492;DHT22;1760;52.480;13.422;2022-08-20T15:23:59;22.10;99.90
3492;DHT22;1760;52.480;13.422;2022-08-20T15:26:26;22.10;99.90
3492;DHT22;1760;52.480;13.422;2022-08-20T15:28:54;22.10;99.90
3492;DHT22;1760;52.480;13.422;2022-08-20T15:31:21;22.10;99.90
3492;DHT22;1760;52.480;13.422;2022-08-20T15:33:47;22.10;99.90
3492;DHT22;1760;52.480;13.422;2022-08-20T15:36:16;22.10;99.90
3492;DHT22;1760;52.480;13.422;2022-08-20T15:38:43;22.00;99.90
3492;DHT22;1760;52.480;13.422;2022-08-20T15:41:09;22.00;99.90
3492;DHT22;1760;52.480;13.422;2022-08-20T15:43:36;22.00;99.90
3492;DHT22;1760;52.480;13.422;2022-08-20T15:46:04;22.00;99.90
3492;DHT22;1760;52.480;13.422;2022-08-20T15:48:34;22.00;99.90
3492;DHT22;1760;52.480;13.422;2022-08-20T15:51:19;22.00;99.90
3492;DHT22;1760;52.480;13.422;2022-08-20T15:53:54;22.00;99.90